Time;durP1;ratioP1;P1;durP2;ratioP2;P2;SDS_P1;SDS_P2;PMS_P1;PMS_P2;Temp;Humidity;BMP_temperature;BMP_pressure;BME280_temperature;BME280_humidity;BME280_pressure;Samples;Min_cycle;Max_cycle;Signal;HPM_P1;HPM_P2
2022/05/29 00:02:10;;;;;;;15.73;2.80;;;10.10;99.90;;;;;;5001174;28;20525;-83
2022/05/29 00:04:39;;;;;;;11.98;2.60;;;10.10;99.90;;;;;;5006740;28;20038;-83
2022/05/29 00:07:05;;;;;;;12.00;2.97;;;10.10;99.90;;;;;;4984272;28;20065;-83
2022/05/29 00:09:40;;;;;;;18.27;2.70;;;10.10;99.90;;;;;;5016312;28;20038;-84
2022/05/29 00:12:07;;;;;;;9.88;3.10;;;10.10;99.90;;;;;;5009899;28;20026;-83
2022/05/29 00:14:34;;;;;;;13.40;2.80;;;10.10;99.90;;;;;;5007378;28;20042;-83
2022/05/29 00:17:00;;;;;;;12.70;2.53;;;10.10;99.90;;;;;;5007442;28;20061;-82
2022/05/29 00:19:26;;;;;;;10.40;2.72;;;10.10;99.90;;;;;;5007804;28;20065;-83
2022/05/29 00:21:52;;;;;;;10.15;3.17;;;10.10;99.90;;;;;;5009429;28;20065;-82
2022/05/29 00:24:18;;;;;;;10.57;2.83;;;10.10;99.90;;;;;;5009137;28;20041;-83
2022/05/29 00:26:43;;;;;;;9.35;2.65;;;10.10;99.90;;;;;;5008156;28;20562;-83
2022/05/29 00:29:09;;;;;;;11.55;2.85;;;10.10;99.90;;;;;;5005181;28;20460;-83
2022/05/29 00:31:35;;;;;;;14.95;3.08;;;10.10;99.90;;;;;;4991009;28;20140;-83
2022/05/29 00:34:02;;;;;;;15.02;3.42;;;10.10;99.90;;;;;;4990313;28;20128;-83
2022/05/29 00:36:32;;;;;;;10.77;2.60;;;10.10;99.90;;;;;;5009114;28;20091;-82
2022/05/29 00:38:58;;;;;;;12.38;2.90;;;10.10;99.90;;;;;;5009941;28;20376;-82
2022/05/29 00:41:29;;;;;;;10.60;2.80;;;10.20;99.90;;;;;;5007671;28;20034;-83
2022/05/29 00:44:18;;;;;;;12.70;3.03;;;10.20;99.90;;;;;;4984357;28;20030;-82
2022/05/29 00:47:01;;;;;;;7.90;2.25;;;10.20;99.90;;;;;;4998747;28;20122;-83
2022/05/29 00:49:35;;;;;;;8.55;2.45;;;10.10;99.90;;;;;;5007168;28;20122;-82
2022/05/29 00:52:27;;;;;;;12.27;2.95;;;10.10;99.90;;;;;;5001624;28;20076;-82
2022/05/29 00:55:00;;;;;;;9.13;2.50;;;10.10;99.90;;;;;;5007576;28;20045;-83
2022/05/29 00:57:29;;;;;;;8.05;2.90;;;10.10;99.90;;;;;;5006731;28;20046;-83
2022/05/29 00:59:58;;;;;;;15.60;2.65;;;10.10;99.90;;;;;;5007584;28;20030;-82
2022/05/29 01:02:24;;;;;;;10.18;2.92;;;10.10;99.90;;;;;;5009144;28;20041;-83
2022/05/29 01:04:49;;;;;;;9.05;2.63;;;10.10;99.90;;;;;;5012030;28;20030;-83
2022/05/29 01:07:18;;;;;;;11.13;2.97;;;10.10;99.90;;;;;;5012677;28;20488;-83
2022/05/29 01:09:46;;;;;;;12.82;2.80;;;10.10;99.90;;;;;;5013428;28;20066;-82
2022/05/29 01:12:36;;;;;;;7.95;2.30;;;10.00;99.90;;;;;;5013624;28;20048;-82
2022/05/29 01:15:07;;;;;;;11.95;3.10;;;10.00;99.90;;;;;;5008575;28;20084;-82
2022/05/29 01:17:42;;;;;;;13.30;2.72;;;10.00;99.90;;;;;;5011023;28;20504;-83
2022/05/29 01:20:37;;;;;;;12.07;3.00;;;10.00;99.90;;;;;;4990680;28;20406;-82
2022/05/29 01:23:35;;;;;;;11.85;2.92;;;10.00;99.90;;;;;;5007037;28;20076;-83
2022/05/29 01:26:07;;;;;;;13.95;3.45;;;9.90;99.90;;;;;;5006080;28;20034;-82
2022/05/29 01:28:48;;;;;;;13.80;3.40;;;9.90;99.90;;;;;;5014090;28;20049;-83
2022/05/29 01:31:37;;;;;;;12.27;3.60;;;9.90;99.90;;;;;;5006347;28;20710;-83
2022/05/29 01:34:12;;;;;;;15.77;3.00;;;9.90;99.90;;;;;;4991429;28;20061;-83
2022/05/29 01:37:09;;;;;;;11.95;2.90;;;9.90;99.90;;;;;;5010242;28;20111;-81
2022/05/29 01:40:02;;;;;;;17.05;3.10;;;9.90;99.90;;;;;;5011781;28;20042;-83
2022/05/29 01:42:35;;;;;;;12.15;2.60;;;9.90;99.90;;;;;;5001855;28;20034;-83
2022/05/29 01:45:13;;;;;;;14.25;2.90;;;9.90;99.90;;;;;;5019873;28;20112;-82
2022/05/29 01:47:48;;;;;;;13.02;3.20;;;9.90;99.90;;;;;;5003646;28;20042;-83
2022/05/29 01:50:26;;;;;;;12.10;3.00;;;9.90;99.90;;;;;;5013591;28;20449;-82
2022/05/29 01:53:01;;;;;;;11.02;3.30;;;10.00;99.90;;;;;;5026330;28;20052;-82
2022/05/29 01:55:32;;;;;;;8.40;2.75;;;10.00;99.90;;;;;;5006212;28;20060;-83
2022/05/29 01:58:07;;;;;;;10.75;2.70;;;10.00;99.90;;;;;;5011978;28;20033;-82
2022/05/29 02:00:33;;;;;;;9.68;3.03;;;10.00;99.90;;;;;;5010655;28;20041;-83
2022/05/29 02:03:28;;;;;;;13.52;3.10;;;10.00;99.90;;;;;;5002968;28;20401;-82
2022/05/29 02:05:58;;;;;;;14.63;2.95;;;10.00;99.90;;;;;;5003431;28;20476;-82
2022/05/29 02:08:48;;;;;;;12.30;2.90;;;10.00;99.90;;;;;;5003784;28;20564;-83
2022/05/29 02:11:21;;;;;;;10.38;3.00;;;10.00;99.90;;;;;;5007046;28;20134;-83
2022/05/29 02:14:03;;;;;;;17.00;3.30;;;10.00;99.90;;;;;;5007564;28;20033;-82
2022/05/29 02:16:43;;;;;;;13.77;3.45;;;10.00;99.90;;;;;;4993308;28;20045;-83
2022/05/29 02:19:16;;;;;;;11.80;3.42;;;10.00;99.90;;;;;;5012076;28;20042;-83
2022/05/29 02:21:45;;;;;;;11.38;3.60;;;10.00;99.90;;;;;;5008363;28;20096;-82
2022/05/29 02:24:17;;;;;;;15.07;3.50;;;10.00;99.90;;;;;;5015498;28;20045;-82
2022/05/29 02:26:50;;;;;;;11.80;2.88;;;10.00;99.90;;;;;;5023544;28;20089;-82
2022/05/29 02:29:16;;;;;;;11.63;3.22;;;10.00;99.90;;;;;;4988735;28;20042;-82
2022/05/29 02:31:57;;;;;;;12.05;3.10;;;10.00;99.90;;;;;;4999991;28;20034;-83
2022/05/29 02:34:35;;;;;;;10.68;3.03;;;10.00;99.90;;;;;;5016718;28;20393;-82
2022/05/29 02:37:35;;;;;;;10.02;2.70;;;10.00;99.90;;;;;;4986865;28;20033;-83
2022/05/29 02:40:36;;;;;;;18.50;3.95;;;10.00;99.90;;;;;;5022579;28;20037;-83
2022/05/29 02:43:21;;;;;;;11.45;3.35;;;10.00;99.90;;;;;;5005792;28;20080;-82
2022/05/29 02:46:22;;;;;;;11.70;3.20;;;10.00;99.90;;;;;;4986259;28;20038;-82
2022/05/29 02:49:01;;;;;;;13.80;2.97;;;10.00;99.90;;;;;;5015085;28;20057;-82
2022/05/29 02:51:46;;;;;;;15.15;3.30;;;10.00;99.90;;;;;;5010361;28;20048;-83
2022/05/29 02:54:19;;;;;;;15.45;3.35;;;10.00;99.90;;;;;;4991752;28;20042;-82
2022/05/29 02:56:44;;;;;;;12.95;2.72;;;10.00;99.90;;;;;;5009427;28;20096;-82
2022/05/29 02:59:11;;;;;;;9.20;2.33;;;10.00;99.90;;;;;;5004172;28;20508;-83
2022/05/29 03:01:56;;;;;;;13.18;2.78;;;9.90;99.90;;;;;;5010164;28;20033;-82
2022/05/29 03:04:53;;;;;;;14.88;2.95;;;9.90;99.90;;;;;;4993559;28;20034;-82
2022/05/29 03:07:39;;;;;;;10.80;2.63;;;9.90;99.90;;;;;;5009572;28;20053;-83
2022/05/29 03:10:15;;;;;;;10.80;3.28;;;9.90;99.90;;;;;;5016264;28;20120;-82
2022/05/29 03:13:02;;;;;;;10.75;2.97;;;9.80;99.90;;;;;;5003225;28;20066;-83
2022/05/29 03:15:37;;;;;;;11.82;2.80;;;9.80;99.90;;;;;;5009811;28;20101;-82
2022/05/29 03:18:17;;;;;;;11.82;3.13;;;9.80;99.90;;;;;;4996341;28;20504;-82
2022/05/29 03:21:03;;;;;;;16.48;3.30;;;9.80;99.90;;;;;;5006746;28;20073;-83
2022/05/29 03:23:55;;;;;;;19.25;3.38;;;9.80;99.90;;;;;;5008604;28;20045;-83
2022/05/29 03:26:47;;;;;;;11.45;3.08;;;9.80;99.90;;;;;;5005043;28;20046;-82
2022/05/29 03:29:41;;;;;;;14.48;2.88;;;9.80;99.90;;;;;;5021382;28;20096;-81
2022/05/29 03:32:08;;;;;;;14.18;3.05;;;9.80;99.90;;;;;;4998758;28;20038;-82
2022/05/29 03:34:33;;;;;;;13.25;2.85;;;9.80;99.90;;;;;;5003881;28;20087;-82
2022/05/29 03:36:59;;;;;;;14.70;3.83;;;9.80;99.90;;;;;;5005507;28;20543;-83
2022/05/29 03:39:24;;;;;;;12.13;2.63;;;9.90;99.90;;;;;;5005162;28;20034;-83
2022/05/29 03:41:53;;;;;;;14.48;2.83;;;9.80;99.90;;;;;;5001726;28;20126;-83
2022/05/29 03:44:21;;;;;;;14.38;3.08;;;9.90;99.90;;;;;;5006491;28;20052;-82
2022/05/29 03:46:46;;;;;;;8.55;2.70;;;9.90;99.90;;;;;;5000926;28;20037;-83
2022/05/29 03:49:14;;;;;;;8.93;2.20;;;10.00;99.90;;;;;;5009300;28;20474;-82
2022/05/29 03:51:40;;;;;;;7.70;2.08;;;10.00;99.90;;;;;;5003125;28;20064;-83
2022/05/29 03:54:06;;;;;;;9.27;2.03;;;10.00;99.90;;;;;;5005307;28;20377;-82
2022/05/29 03:56:32;;;;;;;8.40;2.20;;;10.00;99.90;;;;;;5025582;28;20030;-82
2022/05/29 03:58:58;;;;;;;6.85;2.00;;;10.00;99.90;;;;;;5004621;28;20092;-82
2022/05/29 04:01:25;;;;;;;10.27;2.70;;;10.00;99.90;;;;;;5020206;28;20025;-82
2022/05/29 04:03:53;;;;;;;8.65;1.98;;;10.00;99.90;;;;;;4991694;28;20107;-82
2022/05/29 04:06:24;;;;;;;9.80;2.08;;;10.00;99.90;;;;;;5008796;28;20041;-81
2022/05/29 04:14:20;;;;;;;10.70;2.30;;;10.00;99.90;;;;;;5003241;28;20046;-82
2022/05/29 04:16:46;;;;;;;8.95;2.28;;;10.00;99.90;;;;;;5008866;28;20575;-82
2022/05/29 04:19:11;;;;;;;6.75;1.77;;;10.00;99.90;;;;;;5008224;28;20137;-82
2022/05/29 04:21:37;;;;;;;11.15;2.63;;;10.00;99.90;;;;;;5009100;28;20129;-82
2022/05/29 04:24:03;;;;;;;11.95;2.20;;;10.00;99.90;;;;;;5009531;28;20042;-82
2022/05/29 04:26:28;;;;;;;8.52;2.20;;;10.00;99.90;;;;;;5010147;28;20041;-82
2022/05/29 04:28:54;;;;;;;10.15;2.63;;;10.00;99.90;;;;;;5007375;28;20072;-82
2022/05/29 04:31:19;;;;;;;8.95;2.30;;;10.00;99.90;;;;;;5000851;28;20040;-82
2022/05/29 04:33:45;;;;;;;13.82;3.00;;;9.90;99.90;;;;;;5024612;28;20446;-82
2022/05/29 04:36:11;;;;;;;11.88;2.65;;;9.90;99.90;;;;;;5009991;28;20100;-83
2022/05/29 04:38:37;;;;;;;11.73;2.80;;;9.90;99.90;;;;;;5001615;28;20154;-83
2022/05/29 04:41:08;;;;;;;14.45;2.40;;;9.90;99.90;;;;;;5003103;28;20042;-82
2022/05/29 04:43:34;;;;;;;14.30;2.13;;;9.80;99.90;;;;;;5002578;28;20042;-81
2022/05/29 04:46:00;;;;;;;10.70;2.30;;;9.80;99.90;;;;;;5009356;28;20064;-81
2022/05/29 04:48:26;;;;;;;12.18;2.50;;;9.90;99.90;;;;;;4991958;28;20065;-82
2022/05/29 04:51:10;;;;;;;11.27;2.47;;;9.80;99.90;;;;;;5006539;28;20697;-83
2022/05/29 04:53:36;;;;;;;9.77;2.47;;;9.80;99.90;;;;;;4983337;28;20042;-82
2022/05/29 04:56:02;;;;;;;12.10;2.25;;;9.80;99.90;;;;;;5003751;28;20030;-83
2022/05/29 04:58:29;;;;;;;10.63;2.25;;;9.90;99.90;;;;;;5007255;28;20444;-83
2022/05/29 05:00:59;;;;;;;14.98;2.85;;;9.90;99.90;;;;;;5004810;28;20030;-82
2022/05/29 05:03:25;;;;;;;10.70;2.53;;;10.00;99.90;;;;;;4994101;28;20034;-82
2022/05/29 05:05:51;;;;;;;10.90;2.50;;;10.00;99.90;;;;;;5010202;28;20050;-82
2022/05/29 05:08:17;;;;;;;13.05;2.35;;;10.10;99.90;;;;;;5010691;28;20522;-82
2022/05/29 05:10:42;;;;;;;15.00;2.58;;;10.10;99.90;;;;;;5010572;28;20042;-83
2022/05/29 05:13:08;;;;;;;16.15;2.78;;;10.10;99.90;;;;;;4994465;28;20085;-82
2022/05/29 05:15:35;;;;;;;11.85;2.55;;;10.20;99.90;;;;;;5013719;28;20041;-83
2022/05/29 05:18:01;;;;;;;11.90;2.75;;;10.20;99.90;;;;;;5009484;28;20034;-83
2022/05/29 05:20:26;;;;;;;10.50;2.35;;;10.20;99.90;;;;;;4999530;28;20042;-82
2022/05/29 05:22:52;;;;;;;13.50;2.15;;;10.30;99.90;;;;;;4984761;28;20046;-82
2022/05/29 05:25:18;;;;;;;12.13;2.60;;;10.30;99.90;;;;;;4985129;28;20041;-83
2022/05/29 05:27:44;;;;;;;11.55;2.08;;;10.30;99.90;;;;;;5006152;28;20034;-82
2022/05/29 05:30:10;;;;;;;12.30;2.45;;;10.30;99.90;;;;;;5002744;28;20050;-83
2022/05/29 05:32:36;;;;;;;10.18;1.88;;;10.30;99.90;;;;;;5005908;28;20449;-83
2022/05/29 05:35:05;;;;;;;11.32;2.08;;;10.30;99.90;;;;;;4990354;28;20125;-84
2022/05/29 05:37:36;;;;;;;14.18;2.38;;;10.10;99.90;;;;;;4991962;28;20524;-83
2022/05/29 05:40:04;;;;;;;9.20;1.90;;;10.00;99.90;;;;;;5006069;28;20352;-84
2022/05/29 05:42:30;;;;;;;13.68;2.33;;;9.80;99.90;;;;;;4991931;28;20038;-85
2022/05/29 05:44:56;;;;;;;19.25;3.55;;;9.80;99.90;;;;;;4993461;28;20109;-84
2022/05/29 05:47:22;;;;;;;12.73;2.28;;;9.70;99.90;;;;;;5007894;28;20052;-83
2022/05/29 05:49:49;;;;;;;14.73;2.90;;;9.80;99.90;;;;;;5009990;28;20056;-83
2022/05/29 05:52:16;;;;;;;17.95;2.40;;;9.80;99.90;;;;;;4994458;28;20038;-85
2022/05/29 05:54:42;;;;;;;15.48;2.70;;;9.80;99.90;;;;;;4994007;28;20044;-84
2022/05/29 05:57:07;;;;;;;17.75;2.95;;;9.90;99.90;;;;;;5012339;28;20482;-83
2022/05/29 05:59:35;;;;;;;14.00;2.90;;;9.90;99.90;;;;;;4996865;28;20030;-83
2022/05/29 06:02:01;;;;;;;16.73;2.97;;;10.00;99.90;;;;;;5012643;28;20034;-82
2022/05/29 06:04:26;;;;;;;11.85;2.63;;;10.00;99.90;;;;;;5010929;28;20034;-83
2022/05/29 06:06:53;;;;;;;15.32;2.70;;;10.00;99.90;;;;;;5011815;28;20042;-83
2022/05/29 06:09:20;;;;;;;14.10;3.22;;;10.00;99.90;;;;;;5012112;28;20046;-83
2022/05/29 06:11:46;;;;;;;12.13;2.55;;;10.00;99.90;;;;;;4999572;28;20044;-82
2022/05/29 06:14:12;;;;;;;13.60;2.55;;;10.00;99.90;;;;;;4993956;28;20050;-82
2022/05/29 06:16:37;;;;;;;12.07;2.95;;;10.00;99.90;;;;;;5007429;28;20384;-83
2022/05/29 06:19:05;;;;;;;13.80;2.80;;;10.00;99.90;;;;;;5009752;28;20054;-81
2022/05/29 06:21:30;;;;;;;14.18;2.83;;;10.10;99.90;;;;;;5012542;28;20038;-82
2022/05/29 06:23:56;;;;;;;13.20;2.88;;;10.10;99.90;;;;;;5012625;28;20065;-82
2022/05/29 06:26:22;;;;;;;15.43;2.83;;;10.20;99.90;;;;;;5013447;28;20404;-82
2022/05/29 06:28:48;;;;;;;18.67;2.85;;;10.30;99.90;;;;;;5012995;28;20042;-82
2022/05/29 06:31:13;;;;;;;18.27;3.03;;;10.20;99.90;;;;;;5013257;28;20137;-82
2022/05/29 06:33:40;;;;;;;14.57;2.60;;;10.30;99.90;;;;;;5013317;28;20120;-82
2022/05/29 06:36:11;;;;;;;9.55;2.20;;;10.30;99.90;;;;;;5012641;28;20041;-83
2022/05/29 06:38:38;;;;;;;12.20;1.92;;;10.30;99.90;;;;;;5012935;28;20122;-85
2022/05/29 06:41:06;;;;;;;8.63;1.77;;;10.40;99.90;;;;;;5012984;28;20121;-82
2022/05/29 06:43:32;;;;;;;12.02;2.30;;;10.40;99.90;;;;;;4996403;28;20113;-83
2022/05/29 06:45:59;;;;;;;13.75;2.08;;;10.50;99.90;;;;;;5012624;28;20049;-82
2022/05/29 06:48:24;;;;;;;13.15;2.50;;;10.60;99.90;;;;;;5013123;28;20045;-81
2022/05/29 06:50:50;;;;;;;12.38;2.15;;;10.70;99.90;;;;;;5012773;28;20048;-83
2022/05/29 06:53:16;;;;;;;10.45;1.85;;;10.70;99.90;;;;;;5012776;28;20041;-82
2022/05/29 06:55:53;;;;;;;12.05;2.63;;;10.80;99.90;;;;;;5011905;28;20042;-82
2022/05/29 06:58:19;;;;;;;13.32;2.10;;;10.90;99.90;;;;;;5012664;28;20065;-82
2022/05/29 07:08:57;;;;;;;11.05;2.33;;;11.00;99.90;;;;;;5011895;28;20053;-83
2022/05/29 07:11:27;;;;;;;10.18;2.17;;;11.00;99.90;;;;;;5012387;28;20511;-82
2022/05/29 07:13:54;;;;;;;10.85;2.13;;;11.00;99.90;;;;;;5012247;28;20054;-82
2022/05/29 07:16:20;;;;;;;7.13;1.83;;;11.00;99.90;;;;;;5017689;28;20527;-83
2022/05/29 07:18:48;;;;;;;14.00;2.30;;;11.00;99.90;;;;;;5012405;28;20041;-85
2022/05/29 07:21:13;;;;;;;13.50;2.30;;;11.00;99.90;;;;;;4997434;28;20387;-82
2022/05/29 07:23:39;;;;;;;12.90;2.25;;;10.80;99.90;;;;;;5007433;28;20041;-85
2022/05/29 07:26:04;;;;;;;9.07;1.95;;;10.70;99.90;;;;;;5005250;28;20607;-84
2022/05/29 07:28:30;;;;;;;11.35;1.88;;;10.60;99.90;;;;;;5011163;28;20098;-84
2022/05/29 07:30:56;;;;;;;9.07;2.20;;;10.60;99.90;;;;;;5011449;28;20049;-84
2022/05/29 07:33:23;;;;;;;14.60;2.15;;;10.50;99.90;;;;;;5011697;28;20041;-83
2022/05/29 07:35:48;;;;;;;13.13;2.35;;;10.60;99.90;;;;;;5010965;28;20042;-84
2022/05/29 07:38:14;;;;;;;10.85;2.03;;;10.60;99.90;;;;;;4995114;28;20041;-84
2022/05/29 07:40:40;;;;;;;10.27;2.05;;;10.60;99.90;;;;;;4995816;28;20079;-83
2022/05/29 07:43:24;;;;;;;9.95;2.20;;;10.70;99.90;;;;;;5011565;28;20086;-84
2022/05/29 07:45:52;;;;;;;7.20;1.70;;;10.80;99.90;;;;;;5009883;28;20052;-83
2022/05/29 07:48:19;;;;;;;8.00;1.65;;;10.90;99.90;;;;;;4994891;28;20037;-83
2022/05/29 07:50:45;;;;;;;7.85;1.50;;;10.90;99.90;;;;;;5001368;28;20117;-84
2022/05/29 07:53:10;;;;;;;11.20;2.38;;;10.90;99.90;;;;;;5010656;28;20169;-84
2022/05/29 07:55:37;;;;;;;6.43;1.67;;;10.90;99.90;;;;;;5010928;28;20111;-82
2022/05/29 07:58:04;;;;;;;10.10;2.35;;;10.90;99.90;;;;;;5011501;28;20408;-84
2022/05/29 08:00:29;;;;;;;7.55;1.55;;;10.90;99.90;;;;;;4994914;28;20116;-84
2022/05/29 08:02:55;;;;;;;11.05;1.63;;;11.00;99.90;;;;;;5010973;28;20515;-83
2022/05/29 08:05:21;;;;;;;10.32;1.80;;;11.00;99.90;;;;;;5010498;28;20511;-84
2022/05/29 08:07:48;;;;;;;11.70;1.60;;;11.00;99.90;;;;;;5010578;28;20034;-83
2022/05/29 08:10:17;;;;;;;8.55;1.35;;;10.90;99.90;;;;;;5011264;28;20137;-84
2022/05/29 08:12:42;;;;;;;6.65;1.42;;;10.90;99.90;;;;;;5011065;28;20053;-84
2022/05/29 08:15:09;;;;;;;7.50;1.48;;;10.90;99.90;;;;;;5009953;28;20048;-83
2022/05/29 08:17:36;;;;;;;7.43;1.33;;;11.00;99.90;;;;;;5011100;28;20046;-83
2022/05/29 08:20:02;;;;;;;7.57;1.50;;;11.10;99.90;;;;;;4995121;28;20042;-83
2022/05/29 08:22:28;;;;;;;6.95;1.70;;;11.20;99.90;;;;;;4994510;28;20034;-82
2022/05/29 08:30:48;;;;;;;8.48;1.48;;;11.10;99.90;;;;;;4996315;28;20132;-83
2022/05/29 08:33:17;;;;;;;7.10;1.40;;;11.10;99.90;;;;;;4991313;28;20050;-84
2022/05/29 08:35:46;;;;;;;8.27;1.30;;;10.90;99.90;;;;;;4974079;28;20046;-83
2022/05/29 08:38:12;;;;;;;9.35;1.88;;;10.80;99.90;;;;;;4990874;28;20133;-84
2022/05/29 08:40:49;;;;;;;6.47;1.45;;;10.80;99.90;;;;;;4991372;28;20100;-83
2022/05/29 08:43:29;;;;;;;3.47;1.00;;;10.90;99.90;;;;;;4991464;28;20389;-85
2022/05/29 08:45:55;;;;;;;10.65;2.15;;;11.00;99.90;;;;;;4990321;28;20456;-84
2022/05/29 08:48:26;;;;;;;9.15;1.52;;;11.10;99.90;;;;;;4990960;28;20078;-84
2022/05/29 08:51:03;;;;;;;13.70;2.38;;;11.20;99.90;;;;;;5005759;28;20046;-84
2022/05/29 08:53:51;;;;;;;11.23;2.28;;;11.30;99.90;;;;;;5010593;28;20046;-84
2022/05/29 08:57:02;;;;;;;11.02;1.90;;;11.40;99.90;;;;;;5026659;28;20046;-84
2022/05/29 08:59:48;;;;;;;9.43;1.73;;;11.20;99.90;;;;;;5006186;28;20061;-84
2022/05/29 09:02:47;;;;;;;9.85;1.52;;;11.10;99.90;;;;;;5010251;28;20085;-84
2022/05/29 09:05:21;;;;;;;9.48;1.80;;;11.10;99.90;;;;;;5010019;28;20045;-83
2022/05/29 09:07:49;;;;;;;6.18;1.40;;;10.90;99.90;;;;;;5010846;28;20418;-83
2022/05/29 09:10:25;;;;;;;6.90;1.55;;;10.80;99.90;;;;;;5011004;28;20050;-83
2022/05/29 09:12:55;;;;;;;6.50;1.60;;;10.80;99.90;;;;;;5011155;28;20096;-82
2022/05/29 09:15:37;;;;;;;11.20;1.33;;;10.80;99.90;;;;;;5010376;28;20128;-83
2022/05/29 09:18:11;;;;;;;10.25;1.35;;;10.80;99.90;;;;;;5011213;28;20104;-83
2022/05/29 09:20:51;;;;;;;7.13;1.40;;;11.00;99.90;;;;;;5014739;28;20096;-83
2022/05/29 09:23:31;;;;;;;10.43;1.58;;;10.90;99.90;;;;;;5015276;28;20073;-83
2022/05/29 09:25:58;;;;;;;11.05;1.90;;;11.00;99.90;;;;;;5014604;28;20084;-83
2022/05/29 09:28:34;;;;;;;6.05;1.45;;;11.10;99.90;;;;;;5031222;28;20104;-82
2022/05/29 09:31:17;;;;;;;8.10;2.03;;;11.10;99.90;;;;;;5031549;28;20069;-82
2022/05/29 09:33:44;;;;;;;8.95;1.77;;;11.20;99.90;;;;;;5014288;28;20038;-83
2022/05/29 09:36:24;;;;;;;5.85;1.13;;;11.10;99.90;;;;;;5016862;28;20038;-86
2022/05/29 09:39:11;;;;;;;11.90;1.88;;;11.00;99.90;;;;;;4986675;28;20125;-83
2022/05/29 09:41:42;;;;;;;7.68;2.22;;;10.90;99.90;;;;;;5009659;28;20412;-83
2022/05/29 09:44:14;;;;;;;9.65;1.50;;;10.80;99.90;;;;;;5009008;28;20033;-83
2022/05/29 09:46:42;;;;;;;8.48;1.45;;;10.90;99.90;;;;;;5008871;28;20042;-83
2022/05/29 09:49:45;;;;;;;6.07;1.40;;;11.00;99.90;;;;;;5005781;28;20121;-83
2022/05/29 09:52:28;;;;;;;10.68;2.20;;;11.10;99.90;;;;;;5009214;28;20049;-82
2022/05/29 09:54:57;;;;;;;7.50;1.50;;;11.30;99.90;;;;;;5022167;28;20046;-82
2022/05/29 09:57:27;;;;;;;8.25;1.73;;;11.50;99.90;;;;;;5009788;28;20042;-83
2022/05/29 10:00:25;;;;;;;7.18;1.95;;;11.70;99.90;;;;;;4992971;28;20038;-83
2022/05/29 10:02:51;;;;;;;6.75;1.58;;;11.90;99.90;;;;;;4992669;28;20137;-83
2022/05/29 10:05:35;;;;;;;8.07;2.00;;;11.90;99.90;;;;;;4991963;28;20041;-83
2022/05/29 10:08:16;;;;;;;8.73;1.55;;;11.80;99.90;;;;;;5024834;28;20038;-84
2022/05/29 10:10:42;;;;;;;8.43;1.40;;;11.70;99.90;;;;;;5021618;28;20173;-82
2022/05/29 10:13:08;;;;;;;8.95;1.98;;;11.60;99.90;;;;;;5006718;28;20567;-83
2022/05/29 10:15:43;;;;;;;11.10;1.98;;;11.50;99.90;;;;;;5010757;28;20049;-83
2022/05/29 10:18:32;;;;;;;11.13;1.80;;;11.40;99.90;;;;;;5012053;28;20033;-83
2022/05/29 10:21:22;;;;;;;12.80;1.90;;;11.30;99.90;;;;;;5007429;28;20116;-83
2022/05/29 10:23:54;;;;;;;9.38;1.73;;;11.30;99.90;;;;;;4991016;28;20096;-82
2022/05/29 10:26:22;;;;;;;7.80;1.50;;;11.50;99.90;;;;;;4994217;28;20038;-83
2022/05/29 10:28:49;;;;;;;11.88;1.70;;;11.50;99.90;;;;;;5005791;28;20409;-82
2022/05/29 10:31:25;;;;;;;9.23;1.30;;;11.50;99.90;;;;;;5005433;28;20042;-83
2022/05/29 10:34:23;;;;;;;7.22;1.40;;;11.60;99.90;;;;;;4997843;28;20030;-82
2022/05/29 10:36:49;;;;;;;9.15;1.83;;;11.60;99.90;;;;;;4986482;28;20049;-83
2022/05/29 10:39:22;;;;;;;4.90;1.00;;;11.60;99.90;;;;;;5008807;28;20081;-84
2022/05/29 10:41:49;;;;;;;6.15;0.95;;;11.80;99.90;;;;;;4999029;28;20129;-83
2022/05/29 10:44:41;;;;;;;10.80;1.60;;;11.90;99.90;;;;;;4993689;28;20444;-84
2022/05/29 10:47:14;;;;;;;7.05;1.10;;;12.20;99.90;;;;;;4999419;28;20046;-83
2022/05/29 10:49:53;;;;;;;5.45;1.25;;;12.40;99.90;;;;;;5004613;28;20060;-83
2022/05/29 10:52:37;;;;;;;5.97;1.52;;;12.70;99.90;;;;;;5008762;28;20030;-83
2022/05/29 10:55:14;;;;;;;9.48;1.42;;;12.80;99.90;;;;;;4984671;28;20543;-83
2022/05/29 10:57:40;;;;;;;8.25;1.92;;;12.70;99.90;;;;;;4997537;28;20479;-82
2022/05/29 11:00:19;;;;;;;9.77;1.25;;;12.50;99.90;;;;;;5000309;28;20038;-83
2022/05/29 11:03:26;;;;;;;8.02;1.30;;;12.30;99.90;;;;;;4988885;28;20428;-83
2022/05/29 11:06:10;;;;;;;13.63;1.60;;;12.10;99.90;;;;;;4992627;28;20034;-83
2022/05/29 11:09:03;;;;;;;7.90;1.42;;;11.60;99.90;;;;;;5002322;28;20046;-83
2022/05/29 11:12:05;;;;;;;8.68;1.45;;;11.40;99.90;;;;;;4992556;28;20472;-83
2022/05/29 11:14:56;;;;;;;8.63;1.70;;;11.40;99.90;;;;;;5021675;28;20038;-83
2022/05/29 11:17:31;;;;;;;5.50;1.58;;;11.30;99.90;;;;;;5001452;28;20049;-83
2022/05/29 11:20:18;;;;;;;8.30;1.40;;;11.30;99.90;;;;;;5005899;28;20038;-83
2022/05/29 11:23:06;;;;;;;8.60;1.30;;;11.40;99.90;;;;;;4988070;28;20508;-82
2022/05/29 11:25:36;;;;;;;7.80;1.58;;;11.50;99.90;;;;;;5021159;28;20041;-83
2022/05/29 11:28:23;;;;;;;12.52;1.60;;;11.60;99.90;;;;;;4990764;28;20037;-83
2022/05/29 11:31:08;;;;;;;5.70;1.25;;;11.90;99.90;;;;;;5006715;28;20046;-82
2022/05/29 11:34:00;;;;;;;6.93;1.35;;;12.20;99.90;;;;;;5007461;28;20046;-82
2022/05/29 11:36:54;;;;;;;6.78;1.65;;;12.50;99.90;;;;;;5004630;28;20038;-83
2022/05/29 11:39:44;;;;;;;7.68;1.42;;;12.80;99.90;;;;;;5006793;28;20403;-81
2022/05/29 11:42:26;;;;;;;9.25;1.70;;;13.00;99.90;;;;;;5004111;28;20041;-83
2022/05/29 11:45:07;;;;;;;14.77;1.80;;;13.00;99.90;;;;;;4990036;28;20110;-84
2022/05/29 11:53:29;;;;;;;10.93;1.88;;;12.70;99.90;;;;;;5006358;28;20125;-83
2022/05/29 11:55:58;;;;;;;10.18;1.70;;;12.60;99.90;;;;;;5002960;28;20491;-82
2022/05/29 11:58:42;;;;;;;8.77;1.50;;;12.50;99.90;;;;;;4989428;28;20034;-84
2022/05/29 12:01:15;;;;;;;;;;;12.40;99.90;;;;;;5007965;28;20704;-83
2022/05/29 12:04:05;;;;;;;9.07;1.75;;;12.50;99.90;;;;;;5009813;28;19931;-82
2022/05/29 12:06:54;;;;;;;12.10;2.03;;;12.60;99.90;;;;;;5002619;28;20029;-82
2022/05/29 12:09:27;;;;;;;12.60;1.90;;;12.60;99.90;;;;;;5004797;28;20080;-84
2022/05/29 12:11:59;;;;;;;11.68;1.75;;;12.60;99.90;;;;;;4994665;28;20092;-82
2022/05/29 12:14:31;;;;;;;10.63;2.00;;;12.50;99.90;;;;;;5018012;28;20522;-83
2022/05/29 12:17:20;;;;;;;8.30;1.90;;;12.50;99.90;;;;;;5006810;28;20034;-82
2022/05/29 12:20:17;;;;;;;9.38;1.70;;;12.50;99.90;;;;;;4983295;28;20048;-82
2022/05/29 12:22:49;;;;;;;8.63;1.38;;;12.60;99.90;;;;;;5012395;28;20113;-83
2022/05/29 12:25:49;;;;;;;8.85;1.67;;;12.40;99.90;;;;;;4998557;28;20489;-84
2022/05/29 12:28:47;;;;;;;7.95;1.90;;;12.50;99.90;;;;;;5002945;28;20053;-82
2022/05/29 12:31:22;;;;;;;8.80;2.13;;;12.90;99.90;;;;;;4982626;28;20050;-84
2022/05/29 12:33:48;;;;;;;6.70;1.38;;;13.20;99.90;;;;;;4993803;28;20077;-83
2022/05/29 12:36:14;;;;;;;9.15;1.60;;;13.40;99.90;;;;;;5004823;28;20066;-84
2022/05/29 12:39:20;;;;;;;8.63;1.60;;;13.40;99.90;;;;;;4988708;28;20089;-84
2022/05/29 12:41:59;;;;;;;10.82;1.60;;;13.60;99.90;;;;;;5002733;28;20049;-84
2022/05/29 12:44:40;;;;;;;11.20;1.85;;;13.80;99.90;;;;;;4988061;28;20057;-83
2022/05/29 12:47:22;;;;;;;11.48;1.40;;;13.60;99.90;;;;;;4987245;28;20034;-83
2022/05/29 12:50:32;;;;;;;8.27;1.85;;;13.50;99.90;;;;;;5009236;28;20078;-83
2022/05/29 12:53:40;;;;;;;8.50;1.92;;;13.70;99.90;;;;;;5007874;28;20033;-84
2022/05/29 12:56:35;;;;;;;9.88;1.50;;;13.60;99.90;;;;;;4993846;28;20514;-85
2022/05/29 12:59:23;;;;;;;7.93;1.80;;;13.30;99.90;;;;;;4994857;28;20042;-84
2022/05/29 13:02:05;;;;;;;10.32;1.48;;;13.10;99.90;;;;;;4994850;28;20038;-83
2022/05/29 13:04:53;;;;;;;7.70;1.60;;;12.90;99.90;;;;;;5004178;28;20042;-83
2022/05/29 13:07:52;;;;;;;8.70;1.40;;;12.80;99.90;;;;;;5024978;28;20038;-82
2022/05/29 13:10:25;;;;;;;6.35;1.38;;;12.70;99.90;;;;;;5002400;28;20045;-83
2022/05/29 13:13:00;;;;;;;6.90;1.60;;;12.50;99.90;;;;;;5003314;28;20054;-83
2022/05/29 13:15:36;;;;;;;10.50;1.70;;;12.50;99.90;;;;;;4977843;28;20122;-83
2022/05/29 13:21:15;;;;;;;6.53;1.35;;;12.70;99.90;;;;;;5013627;28;20399;-83
2022/05/29 13:23:51;;;;;;;7.50;1.65;;;12.70;99.90;;;;;;4995092;28;20456;-84
2022/05/29 13:26:24;;;;;;;10.60;1.70;;;12.80;99.90;;;;;;4994279;28;20034;-83
2022/05/29 13:29:00;;;;;;;8.60;1.50;;;12.90;99.90;;;;;;5001031;28;20509;-84
2022/05/29 13:31:31;;;;;;;7.43;1.63;;;13.00;99.90;;;;;;5007078;28;20415;-83
2022/05/29 13:34:17;;;;;;;10.73;1.70;;;13.10;99.90;;;;;;4991729;28;20113;-83
2022/05/29 13:36:43;;;;;;;9.25;1.70;;;13.20;99.90;;;;;;5009582;28;20065;-84
2022/05/29 13:39:33;;;;;;;9.40;1.58;;;13.10;99.90;;;;;;5025970;28;20172;-83
2022/05/29 13:42:10;;;;;;;10.63;1.85;;;12.80;99.90;;;;;;5008541;28;20488;-84
2022/05/29 13:44:38;;;;;;;10.93;1.70;;;12.80;99.90;;;;;;5022651;28;20034;-83
2022/05/29 13:47:19;;;;;;;6.43;1.52;;;12.60;99.90;;;;;;5003735;28;20796;-83
2022/05/29 13:49:49;;;;;;;6.50;1.30;;;12.60;99.90;;;;;;5007860;28;20034;-83